Time;durP1;ratioP1;P1;durP2;ratioP2;P2;SDS_P1;SDS_P2;PMS_P1;PMS_P2;Temp;Humidity;BMP_temperature;BMP_pressure;BME280_temperature;BME280_humidity;BME280_pressure;Samples;Min_cycle;Max_cycle;Signal;HPM_P1;HPM_P2
2023/01/08 00:01:08;;;;;;;2.08;1.30;;;9.40;99.90;;;;;;5094252;28;20476;-70
2023/01/08 00:03:35;;;;;;;2.55;1.42;;;9.30;99.90;;;;;;5094345;28;20044;-70
2023/01/08 00:06:02;;;;;;;1.95;1.67;;;9.40;99.90;;;;;;5093735;28;20055;-71
2023/01/08 00:08:28;;;;;;;3.50;1.60;;;9.30;99.90;;;;;;5093703;28;20091;-70
2023/01/08 00:10:55;;;;;;;1.50;1.40;;;9.30;99.90;;;;;;5093721;28;20063;-70
2023/01/08 00:13:20;;;;;;;2.42;1.75;;;9.30;99.90;;;;;;5093691;28;20047;-70
2023/01/08 00:15:46;;;;;;;2.15;1.60;;;9.30;99.90;;;;;;5094175;28;20043;-70
2023/01/08 00:18:12;;;;;;;2.65;1.67;;;9.30;99.90;;;;;;5093698;28;20151;-70
2023/01/08 00:20:42;;;;;;;2.60;1.63;;;9.30;99.90;;;;;;5093612;28;20044;-70
2023/01/08 00:23:18;;;;;;;2.42;1.40;;;9.30;99.90;;;;;;5093486;28;20040;-70
2023/01/08 00:25:44;;;;;;;2.17;1.25;;;9.30;99.90;;;;;;5076183;28;20087;-70
2023/01/08 00:28:11;;;;;;;1.63;1.20;;;9.30;99.90;;;;;;5093519;28;20054;-70
2023/01/08 00:30:37;;;;;;;1.95;1.73;;;9.30;99.90;;;;;;5093388;28;20399;-70
2023/01/08 00:33:03;;;;;;;2.58;1.65;;;9.30;99.90;;;;;;5093538;28;20383;-70
2023/01/08 00:35:28;;;;;;;2.28;1.27;;;9.30;99.90;;;;;;5075414;28;20403;-70
2023/01/08 00:37:54;;;;;;;1.77;1.60;;;9.30;99.90;;;;;;5075501;28;20051;-70
2023/01/08 00:40:20;;;;;;;1.88;1.50;;;9.30;99.90;;;;;;5093431;28;20051;-69
2023/01/08 00:42:46;;;;;;;2.45;1.45;;;9.30;99.90;;;;;;5093326;28;20567;-70
2023/01/08 00:45:12;;;;;;;3.00;1.40;;;9.30;99.90;;;;;;5075359;28;20048;-70
2023/01/08 00:47:38;;;;;;;1.80;1.20;;;9.30;99.90;;;;;;5093406;28;20391;-70
2023/01/08 00:50:04;;;;;;;1.70;1.23;;;9.30;99.90;;;;;;5093315;28;20044;-70
2023/01/08 00:52:29;;;;;;;1.52;1.13;;;9.30;99.90;;;;;;5075613;28;20040;-70
2023/01/08 00:54:55;;;;;;;2.30;1.50;;;9.30;99.90;;;;;;5075294;28;20365;-70
2023/01/08 00:57:20;;;;;;;2.20;1.30;;;9.30;99.90;;;;;;5075300;28;20130;-70
2023/01/08 00:59:46;;;;;;;2.38;1.45;;;9.30;99.90;;;;;;5075103;28;20059;-70
2023/01/08 01:02:12;;;;;;;2.55;1.42;;;9.30;99.90;;;;;;5093458;28;20543;-69
2023/01/08 01:04:38;;;;;;;3.97;1.40;;;9.30;99.90;;;;;;5075299;28;20460;-70
2023/01/08 01:07:04;;;;;;;2.08;1.58;;;9.30;99.90;;;;;;5075580;28;20491;-69
2023/01/08 01:09:29;;;;;;;3.45;1.50;;;9.50;99.90;;;;;;5095435;28;20054;-70
2023/01/08 01:11:55;;;;;;;2.20;1.63;;;9.30;99.90;;;;;;5096891;28;20121;-71
2023/01/08 01:14:21;;;;;;;3.47;1.77;;;9.50;99.90;;;;;;5096831;28;20040;-71
2023/01/08 01:16:47;;;;;;;2.28;1.50;;;9.40;99.90;;;;;;5096797;28;20040;-71
2023/01/08 01:19:16;;;;;;;2.42;1.70;;;9.40;99.90;;;;;;5096775;28;20044;-71
2023/01/08 01:21:43;;;;;;;2.55;1.73;;;9.40;99.90;;;;;;5096764;28;20052;-71
2023/01/08 01:24:11;;;;;;;2.03;1.50;;;9.40;99.90;;;;;;5096575;28;20047;-71
2023/01/08 01:26:37;;;;;;;4.22;2.22;;;9.40;99.90;;;;;;5078677;28;20396;-71
2023/01/08 01:29:03;;;;;;;4.63;2.53;;;9.30;99.90;;;;;;5096538;28;20039;-71
2023/01/08 01:31:30;;;;;;;3.70;2.17;;;9.30;99.90;;;;;;5096554;28;20083;-71
2023/01/08 01:33:56;;;;;;;4.57;2.50;;;9.40;99.90;;;;;;5096463;28;20055;-71
2023/01/08 01:36:23;;;;;;;4.72;2.25;;;9.20;99.90;;;;;;5097020;28;20044;-72
2023/01/08 01:38:50;;;;;;;3.78;2.58;;;9.20;99.90;;;;;;5079321;28;20048;-71
2023/01/08 01:41:39;;;;;;;3.15;2.30;;;9.10;99.90;;;;;;5096395;28;20129;-72
2023/01/08 01:44:40;;;;;;;5.22;2.70;;;9.30;99.90;;;;;;5096344;28;20090;-72
2023/01/08 01:47:22;;;;;;;4.38;2.30;;;8.20;99.90;;;;;;5078276;28;20062;-71
2023/01/08 01:50:10;;;;;;;3.08;2.20;;;9.10;99.90;;;;;;5097463;28;20040;-72
2023/01/08 01:52:40;;;;;;;3.40;2.47;;;9.10;99.90;;;;;;5096163;28;20032;-72
2023/01/08 01:55:08;;;;;;;3.10;1.90;;;9.00;99.90;;;;;;5096724;28;20052;-72
2023/01/08 01:57:36;;;;;;;2.97;1.80;;;9.00;99.90;;;;;;5096070;28;20051;-72
2023/01/08 02:00:06;;;;;;;2.72;1.83;;;9.00;99.90;;;;;;5095878;28;20099;-71
2023/01/08 02:02:32;;;;;;;3.67;1.67;;;9.10;99.90;;;;;;5096155;28;20139;-72
2023/01/08 02:05:02;;;;;;;3.97;1.52;;;9.00;99.90;;;;;;5062190;28;20113;-72
2023/01/08 02:07:35;;;;;;;3.72;1.80;;;9.00;99.90;;;;;;5077837;28;20052;-72
2023/01/08 02:10:10;;;;;;;3.05;1.30;;;9.00;99.90;;;;;;5095985;28;20156;-73
2023/01/08 02:12:47;;;;;;;2.28;1.20;;;9.00;99.90;;;;;;5077989;28;20491;-73
2023/01/08 02:15:23;;;;;;;3.53;1.35;;;9.00;99.90;;;;;;5095768;28;20051;-72
2023/01/08 02:18:27;;;;;;;1.70;1.10;;;9.00;99.90;;;;;;5095651;28;20040;-72
2023/01/08 02:20:55;;;;;;;;;;;9.00;99.90;;;;;;5032811;28;20052;-71
2023/01/08 02:23:40;;;;;;;1.83;1.10;;;9.00;99.90;;;;;;5083594;28;19927;-71
2023/01/08 02:26:33;;;;;;;2.80;1.10;;;9.00;99.90;;;;;;5095454;28;20048;-71
2023/01/08 02:29:08;;;;;;;2.25;1.00;;;9.00;99.90;;;;;;5077856;28;20093;-72
2023/01/08 02:31:37;;;;;;;4.88;0.80;;;8.90;99.90;;;;;;5077378;28;20052;-72
2023/01/08 02:34:02;;;;;;;4.70;0.90;;;8.90;99.90;;;;;;5077497;28;20395;-71
2023/01/08 02:36:55;;;;;;;2.50;0.70;;;8.90;99.90;;;;;;5095297;28;20040;-71
2023/01/08 02:39:43;;;;;;;1.67;0.70;;;8.90;99.90;;;;;;5095356;28;20082;-72
2023/01/08 02:42:24;;;;;;;2.85;0.68;;;8.80;99.90;;;;;;5078052;28;20387;-73
2023/01/08 02:45:18;;;;;;;2.85;0.65;;;8.80;99.90;;;;;;5095151;28;20140;-72
2023/01/08 02:48:05;;;;;;;4.88;1.13;;;8.80;99.90;;;;;;5095954;28;20119;-71
2023/01/08 02:50:37;;;;;;;3.13;0.60;;;8.70;99.90;;;;;;5076012;28;20097;-71
2023/01/08 02:53:30;;;;;;;5.18;0.80;;;8.60;99.90;;;;;;5076924;28;20040;-72
2023/01/08 02:56:07;;;;;;;5.30;0.70;;;8.70;99.90;;;;;;5077115;28;20476;-72
2023/01/08 02:58:34;;;;;;;5.03;0.60;;;8.60;99.90;;;;;;5094851;28;20044;-72
2023/01/08 03:01:06;;;;;;;4.10;0.80;;;8.60;99.90;;;;;;5076571;28;20547;-72
2023/01/08 03:03:34;;;;;;;5.88;0.70;;;8.70;99.90;;;;;;5094665;28;20431;-72
2023/01/08 03:06:06;;;;;;;4.90;0.70;;;8.60;99.90;;;;;;5077357;28;20051;-71
2023/01/08 03:08:37;;;;;;;3.33;0.60;;;8.50;99.90;;;;;;5094709;28;20044;-71
2023/01/08 03:11:06;;;;;;;2.90;0.68;;;8.50;99.90;;;;;;5094979;28;20388;-71
2023/01/08 03:13:40;;;;;;;2.65;1.00;;;8.50;99.90;;;;;;5094219;28;20484;-71
2023/01/08 03:16:29;;;;;;;5.13;0.80;;;8.50;99.90;;;;;;5094509;28;20063;-71
2023/01/08 03:19:01;;;;;;;4.18;0.77;;;8.50;99.90;;;;;;5081657;28;20078;-71
2023/01/08 03:21:27;;;;;;;6.90;1.27;;;8.40;99.90;;;;;;5060234;28;20430;-71
2023/01/08 03:23:53;;;;;;;4.55;0.70;;;8.50;99.90;;;;;;5094286;28;20148;-71
2023/01/08 03:26:24;;;;;;;3.25;0.60;;;8.40;99.90;;;;;;5076780;28;20051;-71
2023/01/08 03:28:53;;;;;;;4.28;0.75;;;8.40;99.90;;;;;;5077318;28;20411;-71
2023/01/08 03:31:21;;;;;;;4.97;0.80;;;8.40;99.90;;;;;;5094072;28;20092;-71
2023/01/08 03:33:48;;;;;;;7.55;1.05;;;8.40;99.90;;;;;;5058671;28;20052;-71
2023/01/08 03:36:26;;;;;;;2.53;0.60;;;8.40;99.90;;;;;;5094126;28;20044;-71
2023/01/08 03:39:15;;;;;;;5.53;0.70;;;8.40;99.90;;;;;;5076676;28;20084;-71
2023/01/08 03:41:41;;;;;;;3.67;0.80;;;8.30;99.90;;;;;;5094095;28;20433;-71
2023/01/08 03:44:07;;;;;;;2.72;0.60;;;8.30;99.90;;;;;;5093980;28;20039;-71
2023/01/08 03:46:40;;;;;;;5.07;0.80;;;8.50;99.90;;;;;;5094059;28;20161;-71
2023/01/08 03:49:06;;;;;;;;;;;8.30;99.90;;;;;;5095096;28;20065;-71
2023/01/08 03:51:46;;;;;;;3.72;0.82;;;8.30;99.90;;;;;;5093994;28;19927;-71
2023/01/08 03:54:15;;;;;;;3.58;0.90;;;8.20;99.90;;;;;;5093889;28;20040;-71
2023/01/08 03:56:41;;;;;;;5.38;1.02;;;8.30;99.90;;;;;;5093891;28;20086;-71
2023/01/08 03:59:07;;;;;;;4.75;0.70;;;8.40;99.90;;;;;;5093765;28;20075;-71
2023/01/08 04:01:33;;;;;;;3.92;0.75;;;8.30;99.90;;;;;;5093616;28;20071;-71
2023/01/08 04:03:59;;;;;;;4.90;0.70;;;8.30;99.90;;;;;;5076319;28;20464;-72
2023/01/08 04:06:24;;;;;;;5.32;0.88;;;8.30;99.90;;;;;;5094303;28;20048;-71
2023/01/08 04:08:50;;;;;;;5.63;1.30;;;8.30;99.90;;;;;;5093683;28;20051;-72
2023/01/08 04:11:16;;;;;;;6.03;1.00;;;8.30;99.90;;;;;;5093977;28;20052;-71
2023/01/08 04:13:41;;;;;;;2.58;0.90;;;8.20;99.90;;;;;;5076732;28;20475;-71
2023/01/08 04:16:07;;;;;;;3.63;0.88;;;8.20;99.90;;;;;;5075606;28;20066;-71
2023/01/08 04:18:33;;;;;;;5.32;0.80;;;8.20;99.90;;;;;;5076699;28;20051;-70
2023/01/08 04:20:59;;;;;;;4.25;1.10;;;8.20;99.90;;;;;;5075779;28;20052;-71
2023/01/08 04:23:25;;;;;;;4.22;1.05;;;8.20;99.90;;;;;;5075626;28;20135;-71
2023/01/08 04:25:51;;;;;;;3.60;1.25;;;8.30;99.90;;;;;;5075507;28;20135;-71
2023/01/08 04:28:17;;;;;;;4.50;1.00;;;8.20;99.90;;;;;;5075612;28;20079;-71
2023/01/08 04:30:43;;;;;;;3.00;1.00;;;8.30;99.90;;;;;;5093469;28;20484;-72
2023/01/08 04:33:09;;;;;;;1.80;1.05;;;8.30;99.90;;;;;;5076052;28;20036;-71
2023/01/08 04:35:34;;;;;;;1.98;1.27;;;8.30;99.90;;;;;;5093489;28;20074;-71
2023/01/08 04:38:00;;;;;;;3.70;1.40;;;8.30;99.90;;;;;;5075898;28;20050;-71
2023/01/08 04:40:26;;;;;;;2.95;1.50;;;8.50;99.90;;;;;;5075541;28;20040;-71
2023/01/08 04:42:51;;;;;;;3.47;1.70;;;8.40;99.90;;;;;;5093321;28;20072;-71
2023/01/08 04:45:17;;;;;;;3.70;1.73;;;8.50;99.90;;;;;;5079806;28;20452;-71
2023/01/08 04:47:43;;;;;;;3.22;1.48;;;8.50;99.90;;;;;;5098025;28;20101;-71
2023/01/08 04:50:09;;;;;;;2.80;1.33;;;8.50;99.90;;;;;;5097355;28;20400;-71
2023/01/08 04:52:35;;;;;;;3.47;1.50;;;8.50;99.90;;;;;;5079694;28;20468;-71
2023/01/08 04:55:01;;;;;;;1.85;1.05;;;8.50;99.90;;;;;;5097267;28;20086;-71
2023/01/08 04:57:27;;;;;;;2.47;1.10;;;8.50;99.90;;;;;;5097219;28;20044;-71
2023/01/08 04:59:53;;;;;;;3.35;1.33;;;8.60;99.90;;;;;;5096806;28;20093;-71
2023/01/08 05:02:18;;;;;;;2.83;1.10;;;8.60;99.90;;;;;;5097903;28;20144;-71
2023/01/08 05:04:44;;;;;;;2.10;1.10;;;8.60;99.90;;;;;;5097591;28;20044;-71
2023/01/08 05:07:10;;;;;;;1.65;1.13;;;8.50;99.90;;;;;;5062552;28;20079;-71
2023/01/08 05:09:36;;;;;;;4.03;1.30;;;8.70;99.90;;;;;;5096696;28;20043;-71
2023/01/08 05:12:01;;;;;;;1.60;0.90;;;8.70;99.90;;;;;;5096931;28;20048;-71
2023/01/08 05:14:27;;;;;;;3.50;1.10;;;8.70;99.90;;;;;;5096928;28;20197;-71
2023/01/08 05:16:53;;;;;;;2.40;0.93;;;8.70;99.90;;;;;;5097422;28;20059;-71
2023/01/08 05:19:18;;;;;;;3.97;1.00;;;8.70;99.90;;;;;;5097079;28;20052;-71
2023/01/08 05:21:44;;;;;;;4.70;1.08;;;8.70;99.90;;;;;;5079289;28;20052;-72
2023/01/08 05:24:10;;;;;;;2.22;0.77;;;8.70;99.90;;;;;;5097478;28;20048;-71
2023/01/08 05:26:35;;;;;;;1.85;0.80;;;8.70;99.90;;;;;;5096657;28;20079;-71
2023/01/08 05:29:01;;;;;;;1.55;0.80;;;8.70;99.90;;;;;;5096213;28;20047;-71
2023/01/08 05:31:27;;;;;;;1.88;0.80;;;8.70;99.90;;;;;;5097407;28;20091;-71
2023/01/08 05:33:52;;;;;;;4.40;0.80;;;8.70;99.90;;;;;;5096555;28;20044;-71
2023/01/08 05:36:18;;;;;;;1.08;0.70;;;8.60;99.90;;;;;;5096493;28;20126;-71
2023/01/08 05:38:44;;;;;;;1.35;0.80;;;8.70;99.90;;;;;;5096424;28;20085;-71
2023/01/08 05:41:10;;;;;;;3.45;0.70;;;8.70;99.90;;;;;;5096404;28;20131;-71
2023/01/08 05:43:36;;;;;;;2.00;0.80;;;8.60;99.90;;;;;;5096829;28;20494;-71
2023/01/08 05:46:02;;;;;;;2.03;0.82;;;8.80;99.90;;;;;;5096326;28;20055;-71
2023/01/08 05:48:29;;;;;;;3.83;0.80;;;8.60;99.90;;;;;;5096816;28;20051;-70
2023/01/08 05:50:55;;;;;;;2.47;0.65;;;8.60;99.90;;;;;;5096493;28;20483;-71
2023/01/08 05:53:20;;;;;;;6.28;1.08;;;8.60;99.90;;;;;;5078074;28;20057;-72
2023/01/08 05:55:47;;;;;;;4.03;0.95;;;8.60;99.90;;;;;;5095658;28;20048;-71
2023/01/08 05:58:13;;;;;;;2.40;0.80;;;8.60;99.90;;;;;;5096045;28;20133;-71
2023/01/08 06:00:40;;;;;;;3.85;0.75;;;8.60;99.90;;;;;;5095540;28;20048;-71
2023/01/08 06:03:05;;;;;;;4.68;1.17;;;8.60;99.90;;;;;;5061858;28;20426;-71
2023/01/08 06:05:31;;;;;;;1.13;0.75;;;8.60;99.90;;;;;;5095922;28;20131;-71
2023/01/08 06:07:58;;;;;;;1.10;0.68;;;8.60;99.90;;;;;;5096149;28;20056;-71
2023/01/08 06:10:25;;;;;;;4.13;1.13;;;8.50;99.90;;;;;;5095860;28;20110;-71
2023/01/08 06:12:50;;;;;;;1.77;0.90;;;8.50;99.90;;;;;;5062036;28;20088;-71
2023/01/08 06:15:17;;;;;;;3.28;1.05;;;8.50;99.90;;;;;;5077881;28;20131;-71
2023/01/08 06:17:43;;;;;;;2.45;0.82;;;8.50;99.90;;;;;;5095743;28;20044;-71
2023/01/08 06:20:09;;;;;;;2.83;1.00;;;8.40;99.90;;;;;;5077648;28;20117;-71
2023/01/08 06:22:35;;;;;;;3.45;0.80;;;8.50;99.90;;;;;;5077618;28;20051;-71
2023/01/08 06:25:02;;;;;;;3.63;0.80;;;8.50;99.90;;;;;;5077747;28;20404;-71
2023/01/08 06:27:28;;;;;;;3.55;0.98;;;8.40;99.90;;;;;;5095510;28;20054;-72
2023/01/08 06:29:54;;;;;;;3.70;0.90;;;8.40;99.90;;;;;;5095337;28;20104;-71
2023/01/08 06:32:19;;;;;;;2.15;0.80;;;8.40;99.90;;;;;;5095425;28;20135;-72
2023/01/08 06:34:45;;;;;;;2.25;0.93;;;8.40;99.90;;;;;;5095355;28;20186;-72
2023/01/08 06:37:11;;;;;;;2.85;1.10;;;8.40;99.90;;;;;;5095572;28;20196;-71
2023/01/08 06:39:37;;;;;;;2.58;1.10;;;8.40;99.90;;;;;;5094983;28;20048;-71
2023/01/08 06:42:02;;;;;;;2.80;1.00;;;8.40;99.90;;;;;;5077448;28;20126;-71
2023/01/08 06:44:28;;;;;;;3.30;1.20;;;8.40;99.90;;;;;;5095042;28;20392;-71
2023/01/08 06:46:54;;;;;;;3.50;1.20;;;8.40;99.90;;;;;;5095139;28;20101;-71
2023/01/08 06:49:21;;;;;;;2.38;1.35;;;8.40;99.90;;;;;;5076710;28;20051;-71
2023/01/08 06:51:46;;;;;;;2.88;1.08;;;8.40;99.90;;;;;;5060817;28;20052;-70
2023/01/08 06:54:12;;;;;;;2.08;0.90;;;8.40;99.90;;;;;;5094973;28;20468;-71
2023/01/08 06:56:38;;;;;;;4.63;1.45;;;8.40;99.90;;;;;;5077257;28;20040;-71
2023/01/08 06:59:03;;;;;;;2.05;1.10;;;8.40;99.90;;;;;;5076825;28;20129;-70
2023/01/08 07:01:29;;;;;;;2.67;0.93;;;8.40;99.90;;;;;;5095865;28;20070;-71
2023/01/08 07:03:55;;;;;;;3.90;1.05;;;8.40;99.90;;;;;;5095224;28;20475;-71
2023/01/08 07:06:22;;;;;;;3.97;0.90;;;8.40;99.90;;;;;;5094566;28;20040;-70
2023/01/08 07:08:48;;;;;;;2.15;0.80;;;8.30;99.90;;;;;;5094674;28;20044;-71
2023/01/08 07:11:15;;;;;;;2.53;0.88;;;8.40;99.90;;;;;;5094643;28;20040;-71
2023/01/08 07:13:40;;;;;;;2.35;0.82;;;8.40;99.90;;;;;;5095143;28;20104;-71
2023/01/08 07:16:08;;;;;;;4.97;0.80;;;8.30;99.90;;;;;;5076883;28;20044;-70
2023/01/08 07:18:34;;;;;;;2.53;0.90;;;8.30;99.90;;;;;;5094486;28;20048;-71
2023/01/08 07:21:02;;;;;;;2.72;1.00;;;8.30;99.90;;;;;;5076631;28;20054;-71
2023/01/08 07:23:28;;;;;;;2.60;0.90;;;8.30;99.90;;;;;;5076270;28;20047;-71
2023/01/08 07:25:53;;;;;;;2.10;1.10;;;8.30;99.90;;;;;;5076302;28;20036;-70
2023/01/08 07:28:19;;;;;;;4.68;0.70;;;8.30;99.90;;;;;;5094261;28;20058;-70
2023/01/08 07:30:45;;;;;;;3.22;0.85;;;8.40;99.90;;;;;;5076434;28;20040;-71
2023/01/08 07:33:11;;;;;;;2.38;0.60;;;8.40;99.90;;;;;;5076145;28;20123;-70
2023/01/08 07:35:37;;;;;;;3.17;0.70;;;8.20;99.90;;;;;;5076455;28;20135;-70
2023/01/08 07:38:04;;;;;;;2.65;0.88;;;8.30;99.90;;;;;;5076780;28;20051;-71
2023/01/08 07:40:30;;;;;;;1.90;0.60;;;8.20;99.90;;;;;;5094131;28;20047;-71
2023/01/08 07:43:01;;;;;;;2.25;0.70;;;8.20;99.90;;;;;;5076197;28;20497;-70
2023/01/08 07:45:28;;;;;;;0.98;0.60;;;8.20;99.90;;;;;;5076180;28;20066;-71
2023/01/08 07:47:57;;;;;;;2.30;0.60;;;8.10;99.90;;;;;;5094060;28;20051;-71
2023/01/08 07:50:22;;;;;;;4.07;0.60;;;8.10;99.90;;;;;;5093982;28;20069;-70
2023/01/08 07:52:48;;;;;;;1.83;0.70;;;8.10;99.90;;;;;;5094470;28;20044;-70
2023/01/08 07:55:14;;;;;;;2.50;0.63;;;8.10;99.90;;;;;;5093903;28;20044;-71
2023/01/08 07:57:40;;;;;;;2.38;0.70;;;8.10;99.90;;;;;;5094692;28;20118;-70
2023/01/08 08:00:06;;;;;;;3.33;0.70;;;8.10;99.90;;;;;;5059355;28;20056;-71
2023/01/08 08:02:32;;;;;;;3.40;0.93;;;8.20;99.90;;;;;;5094576;28;20083;-71
2023/01/08 08:04:58;;;;;;;3.03;0.68;;;8.10;99.90;;;;;;5093761;28;20087;-71
2023/01/08 08:07:23;;;;;;;3.90;0.80;;;8.10;99.90;;;;;;5094572;28;20040;-71
2023/01/08 08:09:49;;;;;;;1.95;0.70;;;8.20;99.90;;;;;;5094579;28;20046;-71
2023/01/08 08:12:15;;;;;;;4.07;0.80;;;8.10;99.90;;;;;;5060084;28;20048;-71
2023/01/08 08:14:40;;;;;;;2.65;0.80;;;8.10;99.90;;;;;;5094520;28;20470;-71
2023/01/08 08:17:06;;;;;;;3.90;0.77;;;8.20;99.90;;;;;;5076534;28;20048;-71
2023/01/08 08:19:32;;;;;;;2.58;0.80;;;8.10;99.90;;;;;;5075677;28;20048;-71
2023/01/08 08:21:58;;;;;;;3.13;0.95;;;8.00;99.90;;;;;;5093534;28;20048;-71
2023/01/08 08:24:23;;;;;;;3.80;1.08;;;8.00;99.90;;;;;;5075643;28;20040;-71
2023/01/08 08:26:50;;;;;;;4.63;1.10;;;8.00;99.90;;;;;;5093519;28;20048;-71
2023/01/08 08:29:15;;;;;;;2.17;1.00;;;8.00;99.90;;;;;;5075509;28;20052;-71
2023/01/08 08:31:41;;;;;;;2.72;1.25;;;7.90;99.90;;;;;;5094050;28;20101;-71
2023/01/08 08:34:07;;;;;;;4.07;1.30;;;8.00;99.90;;;;;;5093480;28;20044;-71
2023/01/08 08:36:33;;;;;;;4.25;1.20;;;8.00;99.90;;;;;;5076503;28;20165;-71
2023/01/08 08:38:58;;;;;;;4.07;1.15;;;7.90;99.90;;;;;;5093439;28;20105;-71
2023/01/08 08:41:24;;;;;;;4.60;1.38;;;7.90;99.90;;;;;;5093985;28;20547;-71
2023/01/08 08:43:50;;;;;;;3.45;1.23;;;8.00;99.90;;;;;;5094145;28;20040;-71
2023/01/08 08:46:17;;;;;;;5.03;1.20;;;7.90;99.90;;;;;;5075509;28;20040;-70
2023/01/08 08:48:45;;;;;;;5.20;1.20;;;7.90;99.90;;;;;;5093883;28;20087;-70
2023/01/08 08:51:12;;;;;;;2.08;1.00;;;8.00;99.90;;;;;;5093022;28;20488;-71
2023/01/08 08:53:38;;;;;;;3.85;1.20;;;8.00;99.90;;;;;;5094101;28;20036;-71
2023/01/08 08:56:04;;;;;;;4.05;1.30;;;7.90;99.90;;;;;;5093780;28;20040;-70
2023/01/08 08:58:30;;;;;;;3.10;1.20;;;7.90;99.90;;;;;;5093400;28;20086;-71
2023/01/08 09:01:01;;;;;;;4.40;1.10;;;7.90;99.90;;;;;;5093052;28;20097;-70
2023/01/08 09:03:27;;;;;;;7.03;1.17;;;7.90;99.90;;;;;;5075024;28;20089;-70
2023/01/08 09:05:52;;;;;;;5.30;1.27;;;7.90;99.90;;;;;;5075324;28;20476;-72
2023/01/08 09:08:18;;;;;;;6.57;1.23;;;7.90;99.90;;;;;;5093211;28;20036;-72
2023/01/08 09:10:44;;;;;;;3.83;0.98;;;7.90;99.90;;;;;;5093206;28;20071;-72
2023/01/08 09:13:10;;;;;;;3.42;0.80;;;8.00;99.90;;;;;;5076266;28;20178;-71
2023/01/08 09:15:36;;;;;;;3.53;0.80;;;7.90;99.90;;;;;;5093238;28;20056;-72
2023/01/08 09:18:02;;;;;;;3.10;0.80;;;7.90;99.90;;;;;;5093129;28;20051;-71
2023/01/08 09:20:29;;;;;;;3.83;0.82;;;7.90;99.90;;;;;;5058526;28;20094;-70
2023/01/08 09:22:57;;;;;;;3.38;0.80;;;8.00;99.90;;;;;;5075191;28;20036;-70
2023/01/08 09:25:23;;;;;;;3.25;1.00;;;8.00;99.90;;;;;;5075944;28;20353;-70
2023/01/08 09:27:48;;;;;;;3.80;0.70;;;8.00;99.90;;;;;;5075126;28;20047;-70
2023/01/08 09:30:14;;;;;;;2.13;0.75;;;8.00;99.90;;;;;;5093041;28;20052;-70
2023/01/08 09:32:40;;;;;;;4.00;0.80;;;8.00;99.90;;;;;;5096721;28;20040;-70
2023/01/08 09:35:06;;;;;;;2.83;0.70;;;8.00;99.90;;;;;;5096666;28;20059;-70
2023/01/08 09:37:32;;;;;;;1.60;0.70;;;8.00;99.90;;;;;;5096593;28;20044;-69
2023/01/08 09:39:57;;;;;;;3.33;0.75;;;8.00;99.90;;;;;;5078600;28;20127;-69
2023/01/08 09:42:25;;;;;;;2.45;0.98;;;8.00;99.90;;;;;;5078644;28;20494;-70
2023/01/08 09:44:54;;;;;;;3.22;0.70;;;8.00;99.90;;;;;;5078626;28;20047;-69
2023/01/08 09:47:42;;;;;;;2.65;0.80;;;8.00;99.90;;;;;;5096422;28;20088;-71
2023/01/08 09:50:12;;;;;;;2.15;0.70;;;8.20;99.90;;;;;;5096387;28;20052;-71
2023/01/08 09:52:38;;;;;;;3.88;0.73;;;8.10;99.90;;;;;;5096609;28;20244;-71
2023/01/08 09:55:13;;;;;;;4.18;0.80;;;8.10;99.90;;;;;;5096327;28;20127;-71
2023/01/08 09:57:39;;;;;;;4.72;0.90;;;8.10;99.90;;;;;;5096266;28;20079;-71
2023/01/08 10:00:18;;;;;;;4.72;0.70;;;8.10;99.90;;;;;;5095688;28;20096;-71
2023/01/08 10:02:44;;;;;;;5.28;0.90;;;8.10;99.90;;;;;;5095715;28;20480;-71
2023/01/08 10:05:14;;;;;;;2.85;0.70;;;8.10;99.90;;;;;;5096091;28;20048;-71
2023/01/08 10:07:39;;;;;;;2.75;0.65;;;8.20;99.90;;;;;;5096294;28;20047;-71
2023/01/08 10:10:14;;;;;;;5.88;1.10;;;8.20;99.90;;;;;;5077928;28;20400;-71
2023/01/08 10:12:40;;;;;;;4.07;1.13;;;8.20;99.90;;;;;;5096821;28;20040;-69
2023/01/08 10:15:12;;;;;;;2.88;0.60;;;8.20;99.90;;;;;;5061361;28;20533;-69
2023/01/08 10:17:39;;;;;;;2.90;0.85;;;8.20;99.90;;;;;;5096416;28;20040;-70
2023/01/08 10:20:20;;;;;;;2.22;1.30;;;8.30;99.90;;;;;;5095793;28;20047;-71
2023/01/08 10:22:49;;;;;;;3.00;0.60;;;8.20;99.90;;;;;;5095701;28;20083;-70
2023/01/08 10:25:18;;;;;;;2.97;0.60;;;8.30;99.90;;;;;;5077264;28;20050;-69
2023/01/08 10:27:56;;;;;;;1.92;0.50;;;8.30;99.90;;;;;;5044463;28;20139;-69
2023/01/08 10:30:32;;;;;;;5.07;0.70;;;8.40;99.90;;;;;;5095470;28;20039;-69
2023/01/08 10:33:04;;;;;;;4.32;0.55;;;8.30;99.90;;;;;;5096418;28;20117;-69
2023/01/08 10:35:39;;;;;;;3.85;0.70;;;8.30;99.90;;;;;;5077690;28;20051;-68
2023/01/08 10:38:05;;;;;;;3.00;0.70;;;8.30;99.90;;;;;;5095411;28;20143;-69
2023/01/08 10:40:41;;;;;;;3.78;0.70;;;8.40;99.90;;;;;;5095339;28;20052;-68
2023/01/08 10:43:28;;;;;;;2.17;0.70;;;8.30;99.90;;;;;;5094903;28;20036;-69
2023/01/08 10:46:00;;;;;;;3.60;0.55;;;8.30;99.90;;;;;;5077420;28;20119;-69
2023/01/08 10:48:35;;;;;;;4.65;1.10;;;8.40;99.90;;;;;;5095262;28;20036;-70
2023/01/08 10:51:05;;;;;;;4.97;1.33;;;8.30;99.90;;;;;;5095962;28;20133;-70
2023/01/08 10:53:31;;;;;;;6.18;1.08;;;8.40;99.90;;;;;;5095655;28;20056;-70
2023/01/08 10:56:03;;;;;;;4.95;0.93;;;8.30;99.90;;;;;;5095242;28;20071;-70
2023/01/08 10:58:29;;;;;;;3.90;0.60;;;8.40;99.90;;;;;;5095065;28;20055;-71
2023/01/08 11:01:07;;;;;;;4.50;0.70;;;8.40;99.90;;;;;;5095281;28;20052;-70
2023/01/08 11:03:32;;;;;;;4.68;0.80;;;8.40;99.90;;;;;;5094541;28;20533;-70
2023/01/08 11:05:58;;;;;;;6.15;0.93;;;8.40;99.90;;;;;;5095092;28;20047;-70
2023/01/08 11:08:24;;;;;;;3.28;0.60;;;8.40;99.90;;;;;;5094837;28;20507;-70
2023/01/08 11:10:58;;;;;;;4.40;0.80;;;8.40;99.90;;;;;;5077013;28;20124;-70
2023/01/08 11:13:24;;;;;;;7.97;1.27;;;8.50;99.90;;;;;;5095354;28;20050;-69
2023/01/08 11:16:11;;;;;;;3.90;0.70;;;8.40;99.90;;;;;;5076559;28;20051;-70
2023/01/08 11:18:50;;;;;;;4.72;1.02;;;8.50;99.90;;;;;;5095226;28;20044;-67
2023/01/08 11:21:22;;;;;;;4.47;1.02;;;8.50;99.90;;;;;;5095184;28;20090;-70
2023/01/08 11:24:00;;;;;;;5.10;1.33;;;8.50;99.90;;;;;;5094552;28;20093;-70
2023/01/08 11:26:27;;;;;;;4.70;0.80;;;8.50;99.90;;;;;;5095001;28;20055;-69
2023/01/08 11:29:11;;;;;;;4.80;1.00;;;8.50;99.90;;;;;;5076324;28;20047;-70
2023/01/08 11:31:57;;;;;;;6.93;0.80;;;8.60;99.90;;;;;;5094398;28;20075;-69
2023/01/08 11:34:49;;;;;;;3.58;0.70;;;8.60;99.90;;;;;;5076824;28;20059;-69
2023/01/08 11:37:32;;;;;;;3.50;0.70;;;8.60;99.90;;;;;;5076836;28;20044;-69
2023/01/08 11:39:58;;;;;;;3.15;0.70;;;8.60;99.90;;;;;;5095153;28;20048;-69
2023/01/08 11:42:30;;;;;;;3.65;0.70;;;8.60;99.90;;;;;;5059334;28;20436;-68
2023/01/08 11:44:56;;;;;;;6.63;0.85;;;8.90;99.90;;;;;;5094199;28;20131;-69
2023/01/08 11:47:49;;;;;;;4.70;0.75;;;8.60;99.90;;;;;;5093970;28;20136;-69
2023/01/08 11:50:34;;;;;;;8.18;0.95;;;8.70;99.90;;;;;;5065348;28;20419;-70
2023/01/08 11:53:36;;;;;;;5.50;0.60;;;8.70;99.90;;;;;;5076329;28;20056;-69
2023/01/08 11:56:30;;;;;;;5.65;0.80;;;8.60;99.90;;;;;;5093999;28;20044;-69
2023/01/08 11:59:17;;;;;;;3.83;0.70;;;8.60;99.90;;;;;;5076477;28;20422;-69
2023/01/08 12:01:48;;;;;;;5.32;0.75;;;8.70;99.90;;;;;;5094608;28;20048;-69
2023/01/08 12:04:17;;;;;;;5.72;1.27;;;8.70;99.90;;;;;;5093964;28;20044;-70
2023/01/08 12:06:48;;;;;;;4.85;0.80;;;8.70;99.90;;;;;;5094728;28;20052;-69
2023/01/08 12:09:34;;;;;;;7.53;1.10;;;8.80;99.90;;;;;;5094721;28;20434;-68
2023/01/08 12:12:16;;;;;;;5.07;0.77;;;8.80;99.90;;;;;;5076038;28;20080;-69
2023/01/08 12:15:00;;;;;;;3.25;0.80;;;8.90;99.90;;;;;;5094685;28;20048;-69
2023/01/08 12:17:29;;;;;;;4.25;0.77;;;8.90;99.90;;;;;;5094902;28;20071;-69
2023/01/08 12:20:14;;;;;;;2.85;0.73;;;8.90;99.90;;;;;;5093564;28;20204;-68
2023/01/08 12:22:58;;;;;;;6.88;0.77;;;8.90;99.90;;;;;;5093997;28;20043;-69
2023/01/08 12:25:51;;;;;;;6.32;0.98;;;8.90;99.90;;;;;;5093774;28;20083;-69
2023/01/08 12:28:35;;;;;;;5.60;0.75;;;9.00;99.90;;;;;;5059485;28;20086;-69
2023/01/08 12:31:13;;;;;;;5.82;0.80;;;9.00;99.90;;;;;;5093853;28;20092;-70
2023/01/08 12:33:53;;;;;;;6.20;0.75;;;9.00;99.90;;;;;;5094157;28;20085;-69
2023/01/08 12:36:28;;;;;;;7.45;0.80;;;9.00;99.90;;;;;;5094205;28;20191;-69
2023/01/08 12:39:19;;;;;;;3.38;0.80;;;9.00;99.90;;;;;;5076627;28;20044;-69
2023/01/08 12:41:48;;;;;;;5.15;0.70;;;9.00;99.90;;;;;;5093732;28;20048;-69
2023/01/08 12:44:25;;;;;;;5.72;1.02;;;9.00;99.90;;;;;;5094226;28;20090;-68
2023/01/08 12:46:53;;;;;;;6.47;1.05;;;9.00;99.90;;;;;;5094103;28;20052;-68
2023/01/08 12:49:38;;;;;;;7.10;0.98;;;9.00;99.90;;;;;;5093451;28;20361;-69
2023/01/08 12:52:10;;;;;;;6.68;0.80;;;9.00;99.90;;;;;;5094035;28;20051;-69
2023/01/08 12:54:45;;;;;;;3.55;1.17;;;8.90;99.90;;;;;;5093450;28;20044;-70
2023/01/08 12:57:55;;;;;;;5.30;0.85;;;8.90;99.90;;;;;;5075737;28;20384;-70
2023/01/08 13:00:32;;;;;;;2.58;0.82;;;8.90;99.90;;;;;;5061897;28;20066;-70
2023/01/08 13:03:04;;;;;;;4.88;1.45;;;8.90;99.90;;;;;;5075766;28;20052;-70
2023/01/08 13:05:32;;;;;;;7.03;1.02;;;8.90;99.90;;;;;;5096335;28;20048;-70
2023/01/08 13:08:07;;;;;;;3.75;0.70;;;8.80;99.90;;;;;;5097271;28;20445;-70
2023/01/08 13:10:37;;;;;;;4.63;1.23;;;8.80;99.90;;;;;;5096947;28;20133;-70
2023/01/08 13:13:05;;;;;;;8.80;1.02;;;8.80;99.90;;;;;;5097623;28;20086;-69